Lutz, FL (33548)

5:44 AM EDT on October 20, 2014 (GMT -0400)
Old Reliable Groves, Lutz, FL | Change Station
CLOSE
Current Station
Personal Weather Station
Location: Lutz, FL
Elevation: 69 ft
Nearby Weather Stations

Elev 69 ft 28.12 °N, 82.47 °W | Updated 2 seconds ago

Partly Cloudy
Partly Cloudy
61.5 °F
Feels Like 61.5 °F
N
0.0
Wind Variable Wind from SSE
Gusts 0.0 mph

Today
High -- | Low -- °F
--% Chance of Precip.
Yesterday
High -- | Low -- °F
Precip. -- in
7:33 AM 6:55 PM
Waning Crescent, 12% visible
Pressure 30.02 in
Visibility 9.0 miles
Clouds Clear
Dew Point 61 °F
Humidity 98%
Rainfall 0.00 in
Snow Depth Not available.
UV 0 out of 12
Pollen 7.10 out of 12
Air Quality Not available.
Flu Activity Local Activity
METAR KTPA 200853Z 00000KT 9SM CLR 19/17 A3002 RMK AO2 SLP164 T01940172 55007

More Conditions Fewer Conditions

Pressure 30.02 in
Visibility 9.0 miles
Clouds Clear
Dew Point 61 °F
Humidity 98%
Rainfall 0.00 in
Snow Depth Not available.
UV 0 out of 12
Pollen 7.10 out of 12
Air Quality Not available.
Flu Activity Local Activity
METAR KTPA 200853Z 00000KT 9SM CLR 19/17 A3002 RMK AO2 SLP164 T01940172 55007

More Conditions Fewer Conditions

10-Day Weather Forecast

Almanac

Astronomy

Oct. 20, 2014 Rise Set
Actual Time 7:33 AM EDT 6:55 PM EDT
Civil Twilight 7:09 AM EDT 7:19 PM EDT
Nautical Twilight 6:42 AM EDT 7:46 PM EDT
Astronomical Twilight 6:14 AM EDT 8:14 PM EDT
Moon 4:36 AM EDT 5:04 PM EDT
Length of Visible Light 12h 09m
Length of Day
11h 22m
Waning Crescent, 12% of the Moon is Illuminated
Today
Waning Crescent
Oct 23
New
Oct 30
First Quarter
Nov 6
Full
Nov 14
Last Quarter

Today's Extremes

State Highs State Lows

Community

WunderPhotos

Upload Photos

1,763,325 photos uploaded!

Nearby

Snow Depth

Station Depth Elevation
No new snow has been reported.

Earthquake Activity

City Distance Mag. Time & Date
No recent earthquake activity has been reported nearby.
Minimum magnitude displayed is 2.5.

Coastal Water Temperatures

Place Temperature
St Petersburg, FL 82.0 °F
Old Port Tampa, FL 79.0 °F
McKay Bay Entrance, FL 81.0 °F

Nearby Weather Stations